createdAt,value
2023-03-23T15:58:34.636Z,78.06
2023-03-23T16:01:06.052Z,76.39
2023-03-23T16:03:57.994Z,73.99
2023-03-23T16:06:27.455Z,73.83
2023-03-23T16:08:56.043Z,74.84
2023-03-23T16:11:25.465Z,71.52
2023-03-23T16:13:51.889Z,72.46
2023-03-23T16:16:32.118Z,71.60
2023-03-23T16:18:58.522Z,73.34
2023-03-23T16:21:25.111Z,73.84
2023-03-23T16:23:51.979Z,74.00
2023-03-23T16:26:18.597Z,74.08
2023-03-23T16:28:45.530Z,74.10
2023-03-23T16:31:12.087Z,73.93
2023-03-23T16:33:38.522Z,74.09
2023-03-23T16:36:05.317Z,75.18
2023-03-23T16:38:31.894Z,74.75
2023-03-23T16:40:58.404Z,74.99
2023-03-23T16:43:24.866Z,75.61
2023-03-23T16:45:56.199Z,72.85
2023-03-23T16:48:23.030Z,73.55
2023-03-23T16:50:49.622Z,74.33
2023-03-23T16:53:16.247Z,74.34
2023-03-23T16:55:47.686Z,74.78
2023-03-23T16:58:17.482Z,74.84
2023-03-23T17:00:47.753Z,74.54
2023-03-23T17:03:16.230Z,75.13
2023-03-23T17:05:43.192Z,74.86
2023-03-23T17:08:09.975Z,75.59
2023-03-23T17:10:39.290Z,75.48
2023-03-23T17:13:06.255Z,75.84
2023-03-23T17:15:32.755Z,76.27
2023-03-23T17:17:59.258Z,76.80
2023-03-23T17:20:25.728Z,77.68
2023-03-23T17:22:52.174Z,77.57
2023-03-23T17:25:18.802Z,78.22
2023-03-23T17:27:45.470Z,78.89
2023-03-23T17:30:12.306Z,79.46
2023-03-23T17:32:39.129Z,80.06
2023-03-23T17:35:06.584Z,80.40
2023-03-23T17:37:33.392Z,81.47
2023-03-23T17:40:00.213Z,83.00
2023-03-23T17:42:27.040Z,83.73
2023-03-23T17:44:53.598Z,83.92
2023-03-23T17:47:20.093Z,84.99
2023-03-23T17:49:46.553Z,87.61
2023-03-23T17:52:13.030Z,90.10
2023-03-23T17:54:39.438Z,92.18
2023-03-23T17:57:06.176Z,92.71
2023-03-23T17:59:32.895Z,94.40
2023-03-23T18:01:59.452Z,95.01
2023-03-23T18:04:27.096Z,96.00
2023-03-23T18:06:57.723Z,97.34
2023-03-23T18:09:25.399Z,96.13
2023-03-23T18:11:53.126Z,96.21
2023-03-23T18:14:20.769Z,96.75
2023-03-23T18:16:47.747Z,96.88
2023-03-23T18:19:14.619Z,97.23
2023-03-23T18:21:41.727Z,96.87
2023-03-23T18:24:08.988Z,97.28
2023-03-23T18:26:35.735Z,98.36
2023-03-23T18:29:02.300Z,98.47
2023-03-23T18:31:29.174Z,98.86
2023-03-23T18:33:56.186Z,99.79
2023-03-23T18:36:26.084Z,99.72
2023-03-23T18:38:56.233Z,99.32
2023-03-23T18:41:23.552Z,99.04
2023-03-23T18:43:50.187Z,98.99
2023-03-23T18:46:16.673Z,99.61
2023-03-23T18:48:43.821Z,100.00
2023-03-23T18:51:11.304Z,100.00
2023-03-23T18:53:37.816Z,100.00
2023-03-23T18:56:16.059Z,100.00
2023-03-23T18:58:43.343Z,100.00
2023-03-23T19:01:13.001Z,100.00
2023-03-23T19:03:40.368Z,100.00
2023-03-23T19:06:11.591Z,100.00
2023-03-23T19:08:38.001Z,100.00
2023-03-23T19:11:05.081Z,100.00
2023-03-23T19:13:37.535Z,100.00
2023-03-23T19:16:05.725Z,100.00
2023-03-23T19:18:32.569Z,100.00
2023-03-23T19:23:28.973Z,100.00
2023-03-23T19:25:55.465Z,100.00
2023-03-23T19:29:03.810Z,100.00
2023-03-23T19:31:08.822Z,100.00
2023-03-23T19:33:35.528Z,100.00
2023-03-23T19:36:10.944Z,100.00
2023-03-23T19:38:39.953Z,100.00
2023-03-23T19:41:06.807Z,100.00
2023-03-23T19:43:33.802Z,100.00
2023-03-23T19:46:00.669Z,100.00
2023-03-23T19:48:27.157Z,100.00
2023-03-23T19:50:53.742Z,100.00
2023-03-23T19:53:20.560Z,100.00
2023-03-23T19:55:47.463Z,100.00
2023-03-23T19:58:14.487Z,100.00
2023-03-23T20:00:41.202Z,100.00
2023-03-23T20:03:08.766Z,100.00
2023-03-23T20:05:35.908Z,100.00
2023-03-23T20:08:04.491Z,100.00
2023-03-23T20:10:34.536Z,100.00
2023-03-23T20:13:02.136Z,100.00
2023-03-23T20:15:30.783Z,100.00
2023-03-23T20:17:58.423Z,100.00
2023-03-23T20:20:25.774Z,100.00
2023-03-23T20:22:54.528Z,100.00
2023-03-23T20:25:23.058Z,100.00
2023-03-23T20:27:49.456Z,100.00
2023-03-23T20:30:16.958Z,100.00
2023-03-23T20:32:46.358Z,100.00
2023-03-23T20:35:14.578Z,100.00
2023-03-23T20:37:41.151Z,100.00
2023-03-23T20:40:11.378Z,100.00
2023-03-23T20:42:38.591Z,100.00
2023-03-23T20:45:06.814Z,100.00
2023-03-23T20:47:33.317Z,100.00
2023-03-23T20:50:00.170Z,100.00
2023-03-23T20:52:26.626Z,100.00
2023-03-23T20:54:54.906Z,100.00
2023-03-23T20:57:22.443Z,100.00
2023-03-23T20:59:53.273Z,100.00
2023-03-23T21:02:20.309Z,100.00
2023-03-23T21:04:48.795Z,100.00
2023-03-23T21:07:16.000Z,100.00
2023-03-23T21:09:42.991Z,100.00
2023-03-23T21:12:10.218Z,100.00
2023-03-23T21:14:38.908Z,100.00
2023-03-23T21:17:06.519Z,100.00
2023-03-23T21:19:33.768Z,100.00
2023-03-23T21:22:00.353Z,100.00
2023-03-23T21:24:29.009Z,100.00
2023-03-23T21:26:57.572Z,100.00
2023-03-23T21:29:24.293Z,100.00
2023-03-23T21:32:01.139Z,100.00
2023-03-23T21:34:34.312Z,100.00
2023-03-23T21:37:00.703Z,100.00
2023-03-23T21:39:28.141Z,100.00
2023-03-23T21:41:54.827Z,100.00
2023-03-23T21:44:21.602Z,100.00
2023-03-23T21:46:48.007Z,100.00
2023-03-23T21:49:14.615Z,100.00
2023-03-23T21:51:42.841Z,100.00
2023-03-23T21:54:10.874Z,100.00
2023-03-23T21:56:37.916Z,100.00
2023-03-23T21:59:07.355Z,100.00
2023-03-23T22:01:36.793Z,100.00
2023-03-23T22:04:03.977Z,100.00
2023-03-23T22:06:31.344Z,100.00
2023-03-23T22:08:58.143Z,100.00
2023-03-23T22:11:28.156Z,100.00
2023-03-23T22:13:56.483Z,100.00
2023-03-23T22:16:24.145Z,100.00
2023-03-23T22:18:52.299Z,100.00
2023-03-23T22:21:21.877Z,100.00
2023-03-23T22:23:49.229Z,100.00
2023-03-23T22:26:16.504Z,100.00
2023-03-23T22:28:45.733Z,100.00
2023-03-23T22:31:17.395Z,100.00
2023-03-23T22:33:45.092Z,100.00
2023-03-23T22:36:11.969Z,100.00
2023-03-23T22:38:41.241Z,100.00
2023-03-23T22:41:09.339Z,100.00
2023-03-23T22:43:37.204Z,100.00
2023-03-23T22:46:04.760Z,100.00
2023-03-23T22:48:31.573Z,100.00
2023-03-23T22:50:58.516Z,100.00
2023-03-23T22:53:25.479Z,100.00
2023-03-23T22:55:55.495Z,100.00
2023-03-23T22:58:22.512Z,100.00
2023-03-23T23:00:51.530Z,100.00
2023-03-23T23:03:18.073Z,100.00
2023-03-23T23:05:46.726Z,100.00
2023-03-23T23:08:15.198Z,100.00
2023-03-23T23:10:46.348Z,100.00
2023-03-23T23:13:13.506Z,100.00
2023-03-23T23:15:42.679Z,100.00
2023-03-23T23:18:09.374Z,100.00
2023-03-23T23:20:36.937Z,100.00
2023-03-23T23:23:04.266Z,100.00
2023-03-23T23:25:31.761Z,100.00
2023-03-23T23:27:59.515Z,100.00
2023-03-23T23:30:27.129Z,100.00
2023-03-23T23:32:54.321Z,100.00
2023-03-23T23:35:21.450Z,100.00
2023-03-23T23:37:48.733Z,100.00
2023-03-23T23:40:16.653Z,100.00
2023-03-23T23:42:44.517Z,100.00
2023-03-23T23:45:12.485Z,100.00
2023-03-23T23:47:39.239Z,100.00
2023-03-23T23:50:08.528Z,100.00
2023-03-23T23:52:36.174Z,100.00
2023-03-23T23:55:04.028Z,100.00
2023-03-23T23:57:30.559Z,100.00
2023-03-23T23:59:57.038Z,100.00
